sensor_id;sensor_type;location;lat;lon;timestamp;pressure;altitude;pressure_sealevel;temperature;humidity
77235;BME280;66253;50.526;14.974;2024-01-30T00:02:22;100943.44;;;-1.49;85.83
77235;BME280;66253;50.526;14.974;2024-01-30T00:04:50;100936.71;;;-1.50;86.04
77235;BME280;66253;50.526;14.974;2024-01-30T00:07:19;100936.53;;;-1.51;86.04
77235;BME280;66253;50.526;14.974;2024-01-30T00:09:49;100934.50;;;-1.52;85.99
77235;BME280;66253;50.526;14.974;2024-01-30T00:12:17;100933.47;;;-1.53;85.93
77235;BME280;66253;50.526;14.974;2024-01-30T00:14:45;100934.27;;;-1.55;85.85
77235;BME280;66253;50.526;14.974;2024-01-30T00:17:13;100937.91;;;-1.57;85.93
77235;BME280;66253;50.526;14.974;2024-01-30T00:19:42;100942.08;;;-1.59;85.98
77235;BME280;66253;50.526;14.974;2024-01-30T00:22:10;100940.52;;;-1.61;85.90
77235;BME280;66253;50.526;14.974;2024-01-30T00:24:38;100941.48;;;-1.62;86.00
77235;BME280;66253;50.526;14.974;2024-01-30T00:27:07;100936.77;;;-1.64;85.95
77235;BME280;66253;50.526;14.974;2024-01-30T00:29:35;100937.10;;;-1.64;86.25
77235;BME280;66253;50.526;14.974;2024-01-30T00:32:04;100937.58;;;-1.66;86.23
77235;BME280;66253;50.526;14.974;2024-01-30T00:34:32;100933.69;;;-1.67;86.25
77235;BME280;66253;50.526;14.974;2024-01-30T00:37:00;100934.67;;;-1.68;86.25
77235;BME280;66253;50.526;14.974;2024-01-30T00:39:29;100932.11;;;-1.70;86.08
77235;BME280;66253;50.526;14.974;2024-01-30T00:41:58;100932.44;;;-1.71;86.05
77235;BME280;66253;50.526;14.974;2024-01-30T00:44:26;100931.91;;;-1.72;86.11
77235;BME280;66253;50.526;14.974;2024-01-30T00:46:54;100930.69;;;-1.74;86.16
77235;BME280;66253;50.526;14.974;2024-01-30T00:49:26;100927.31;;;-1.75;86.11
77235;BME280;66253;50.526;14.974;2024-01-30T00:51:54;100926.42;;;-1.77;86.22
77235;BME280;66253;50.526;14.974;2024-01-30T00:54:22;100923.38;;;-1.79;86.40
77235;BME280;66253;50.526;14.974;2024-01-30T00:56:51;100924.52;;;-1.80;86.27
77235;BME280;66253;50.526;14.974;2024-01-30T00:59:19;100922.15;;;-1.81;86.42
77235;BME280;66253;50.526;14.974;2024-01-30T01:01:47;100918.40;;;-1.84;86.52
77235;BME280;66253;50.526;14.974;2024-01-30T01:04:15;100917.77;;;-1.83;86.70
77235;BME280;66253;50.526;14.974;2024-01-30T01:06:44;100918.40;;;-1.84;86.63
77235;BME280;66253;50.526;14.974;2024-01-30T01:09:13;100926.27;;;-1.85;86.52
77235;BME280;66253;50.526;14.974;2024-01-30T01:11:41;100926.07;;;-1.85;86.58
77235;BME280;66253;50.526;14.974;2024-01-30T01:14:09;100926.58;;;-1.86;86.71
77235;BME280;66253;50.526;14.974;2024-01-30T01:16:37;100926.05;;;-1.86;86.55
77235;BME280;66253;50.526;14.974;2024-01-30T01:19:06;100920.47;;;-1.89;86.49
77235;BME280;66253;50.526;14.974;2024-01-30T01:21:34;100921.79;;;-1.91;86.76
77235;BME280;66253;50.526;14.974;2024-01-30T01:24:02;100919.42;;;-1.91;86.79
77235;BME280;66253;50.526;14.974;2024-01-30T01:26:30;100923.56;;;-1.94;86.58
77235;BME280;66253;50.526;14.974;2024-01-30T01:28:59;100919.80;;;-1.97;86.79
77235;BME280;66253;50.526;14.974;2024-01-30T01:31:27;100914.41;;;-1.99;86.76
77235;BME280;66253;50.526;14.974;2024-01-30T01:33:55;100910.17;;;-2.02;86.82
77235;BME280;66253;50.526;14.974;2024-01-30T01:36:23;100907.63;;;-2.02;86.74
77235;BME280;66253;50.526;14.974;2024-01-30T01:38:51;100905.77;;;-2.03;86.66
77235;BME280;66253;50.526;14.974;2024-01-30T01:41:20;100901.02;;;-2.05;86.70
77235;BME280;66253;50.526;14.974;2024-01-30T01:43:48;100903.67;;;-2.07;86.67
77235;BME280;66253;50.526;14.974;2024-01-30T01:46:16;100905.66;;;-2.08;86.71
77235;BME280;66253;50.526;14.974;2024-01-30T01:48:45;100902.30;;;-2.09;86.70
77235;BME280;66253;50.526;14.974;2024-01-30T01:51:14;100899.89;;;-2.11;86.49
77235;BME280;66253;50.526;14.974;2024-01-30T01:53:42;100900.35;;;-2.13;86.36
77235;BME280;66253;50.526;14.974;2024-01-30T01:56:11;100901.30;;;-2.16;86.30
77235;BME280;66253;50.526;14.974;2024-01-30T01:58:40;100900.92;;;-2.18;86.43
77235;BME280;66253;50.526;14.974;2024-01-30T02:01:09;100901.23;;;-2.19;86.25
77235;BME280;66253;50.526;14.974;2024-01-30T02:03:39;100902.86;;;-2.21;86.47
77235;BME280;66253;50.526;14.974;2024-01-30T02:06:08;100897.78;;;-2.23;86.45
77235;BME280;66253;50.526;14.974;2024-01-30T02:08:38;100894.77;;;-2.23;86.54
77235;BME280;66253;50.526;14.974;2024-01-30T02:11:07;100894.61;;;-2.23;86.82
77235;BME280;66253;50.526;14.974;2024-01-30T02:13:35;100893.42;;;-2.23;86.76
77235;BME280;66253;50.526;14.974;2024-01-30T02:16:04;100892.88;;;-2.25;87.08
77235;BME280;66253;50.526;14.974;2024-01-30T02:18:32;100892.34;;;-2.27;86.90
77235;BME280;66253;50.526;14.974;2024-01-30T02:21:04;100895.52;;;-2.26;87.14
77235;BME280;66253;50.526;14.974;2024-01-30T02:23:33;100893.85;;;-2.26;87.08
77235;BME280;66253;50.526;14.974;2024-01-30T02:26:02;100894.36;;;-2.26;87.07
77235;BME280;66253;50.526;14.974;2024-01-30T02:28:31;100898.71;;;-2.26;86.90
77235;BME280;66253;50.526;14.974;2024-01-30T02:30:59;100902.20;;;-2.27;87.14
77235;BME280;66253;50.526;14.974;2024-01-30T02:33:27;100898.16;;;-2.28;87.31
77235;BME280;66253;50.526;14.974;2024-01-30T02:35:55;100900.70;;;-2.27;87.28
77235;BME280;66253;50.526;14.974;2024-01-30T02:38:24;100899.04;;;-2.26;87.33
77235;BME280;66253;50.526;14.974;2024-01-30T02:40:52;100896.68;;;-2.28;87.26
77235;BME280;66253;50.526;14.974;2024-01-30T02:43:20;100896.79;;;-2.30;87.11
77235;BME280;66253;50.526;14.974;2024-01-30T02:45:49;100900.14;;;-2.30;87.04
77235;BME280;66253;50.526;14.974;2024-01-30T02:48:17;100900.13;;;-2.30;87.19
77235;BME280;66253;50.526;14.974;2024-01-30T02:50:45;100894.73;;;-2.32;87.21
77235;BME280;66253;50.526;14.974;2024-01-30T02:53:13;100895.55;;;-2.32;87.16
77235;BME280;66253;50.526;14.974;2024-01-30T02:55:42;100900.71;;;-2.34;86.90
77235;BME280;66253;50.526;14.974;2024-01-30T02:58:10;100900.83;;;-2.36;86.62
77235;BME280;66253;50.526;14.974;2024-01-30T03:00:38;100897.73;;;-2.40;86.68
77235;BME280;66253;50.526;14.974;2024-01-30T03:03:07;100896.17;;;-2.42;86.67
77235;BME280;66253;50.526;14.974;2024-01-30T03:05:35;100890.38;;;-2.46;86.28
77235;BME280;66253;50.526;14.974;2024-01-30T03:08:03;100891.48;;;-2.49;86.46
77235;BME280;66253;50.526;14.974;2024-01-30T03:10:32;100893.11;;;-2.51;86.43
77235;BME280;66253;50.526;14.974;2024-01-30T03:13:00;100895.58;;;-2.53;86.39
77235;BME280;66253;50.526;14.974;2024-01-30T03:15:28;100897.06;;;-2.54;86.56
77235;BME280;66253;50.526;14.974;2024-01-30T03:17:58;100896.83;;;-2.56;86.44
77235;BME280;66253;50.526;14.974;2024-01-30T03:20:26;100900.33;;;-2.57;86.54
77235;BME280;66253;50.526;14.974;2024-01-30T03:22:55;100898.66;;;-2.57;86.68
77235;BME280;66253;50.526;14.974;2024-01-30T03:25:23;100897.62;;;-2.58;86.68
77235;BME280;66253;50.526;14.974;2024-01-30T03:27:51;100894.58;;;-2.59;86.68
77235;BME280;66253;50.526;14.974;2024-01-30T03:30:20;100890.89;;;-2.60;86.80
77235;BME280;66253;50.526;14.974;2024-01-30T03:32:48;100891.05;;;-2.60;87.01
77235;BME280;66253;50.526;14.974;2024-01-30T03:35:16;100890.05;;;-2.61;87.19
77235;BME280;66253;50.526;14.974;2024-01-30T03:37:44;100885.70;;;-2.61;87.00
77235;BME280;66253;50.526;14.974;2024-01-30T03:40:13;100886.36;;;-2.61;87.06
77235;BME280;66253;50.526;14.974;2024-01-30T03:42:42;100884.48;;;-2.62;86.97
77235;BME280;66253;50.526;14.974;2024-01-30T03:45:11;100881.75;;;-2.65;86.89
77235;BME280;66253;50.526;14.974;2024-01-30T03:47:39;100876.50;;;-2.67;86.79
77235;BME280;66253;50.526;14.974;2024-01-30T03:50:08;100874.80;;;-2.68;86.82
77235;BME280;66253;50.526;14.974;2024-01-30T03:52:36;100871.34;;;-2.73;86.71
77235;BME280;66253;50.526;14.974;2024-01-30T03:55:05;100867.23;;;-2.77;86.99
77235;BME280;66253;50.526;14.974;2024-01-30T03:57:33;100869.66;;;-2.80;86.84
77235;BME280;66253;50.526;14.974;2024-01-30T04:00:02;100866.41;;;-2.82;87.07
77235;BME280;66253;50.526;14.974;2024-01-30T04:02:32;100863.69;;;-2.85;86.75
77235;BME280;66253;50.526;14.974;2024-01-30T04:05:01;100868.50;;;-2.87;86.54
77235;BME280;66253;50.526;14.974;2024-01-30T04:07:31;100868.55;;;-2.91;86.24
77235;BME280;66253;50.526;14.974;2024-01-30T04:09:59;100867.67;;;-2.93;86.50
77235;BME280;66253;50.526;14.974;2024-01-30T04:12:27;100864.64;;;-2.93;86.52
77235;BME280;66253;50.526;14.974;2024-01-30T04:14:56;100865.31;;;-2.94;86.42
77235;BME280;66253;50.526;14.974;2024-01-30T04:17:24;100865.15;;;-2.93;86.67
77235;BME280;66253;50.526;14.974;2024-01-30T04:19:52;100864.81;;;-2.93;86.73
77235;BME280;66253;50.526;14.974;2024-01-30T04:22:20;100865.98;;;-2.94;86.74
77235;BME280;66253;50.526;14.974;2024-01-30T04:24:48;100864.80;;;-2.94;86.77
77235;BME280;66253;50.526;14.974;2024-01-30T04:27:17;100867.30;;;-2.94;86.44
77235;BME280;66253;50.526;14.974;2024-01-30T04:29:45;100870.27;;;-2.95;86.56
77235;BME280;66253;50.526;14.974;2024-01-30T04:32:13;100867.75;;;-2.96;86.70
77235;BME280;66253;50.526;14.974;2024-01-30T04:34:41;100869.73;;;-2.97;86.62
77235;BME280;66253;50.526;14.974;2024-01-30T04:37:10;100868.86;;;-2.98;86.47
77235;BME280;66253;50.526;14.974;2024-01-30T04:39:38;100869.66;;;-3.00;86.77
77235;BME280;66253;50.526;14.974;2024-01-30T04:42:07;100874.15;;;-3.01;86.53
77235;BME280;66253;50.526;14.974;2024-01-30T04:44:35;100875.84;;;-3.00;86.63
77235;BME280;66253;50.526;14.974;2024-01-30T04:47:03;100880.33;;;-3.01;86.62
77235;BME280;66253;50.526;14.974;2024-01-30T04:49:32;100882.15;;;-3.01;86.72
77235;BME280;66253;50.526;14.974;2024-01-30T04:52:00;100887.16;;;-3.02;86.47
77235;BME280;66253;50.526;14.974;2024-01-30T04:54:30;100884.02;;;-3.01;86.80
77235;BME280;66253;50.526;14.974;2024-01-30T04:56:58;100885.15;;;-3.02;86.77
77235;BME280;66253;50.526;14.974;2024-01-30T04:59:26;100889.67;;;-3.01;86.67
77235;BME280;66253;50.526;14.974;2024-01-30T05:01:54;100885.30;;;-3.03;86.57
77235;BME280;66253;50.526;14.974;2024-01-30T05:04:23;100886.45;;;-3.04;86.42
77235;BME280;66253;50.526;14.974;2024-01-30T05:06:51;100886.59;;;-3.04;86.62
77235;BME280;66253;50.526;14.974;2024-01-30T05:09:19;100885.91;;;-3.05;86.47
77235;BME280;66253;50.526;14.974;2024-01-30T05:11:47;100886.04;;;-3.06;86.56
77235;BME280;66253;50.526;14.974;2024-01-30T05:14:16;100882.36;;;-3.07;86.51
77235;BME280;66253;50.526;14.974;2024-01-30T05:16:44;100883.52;;;-3.08;86.57
77235;BME280;66253;50.526;14.974;2024-01-30T05:19:12;100885.35;;;-3.08;86.72
77235;BME280;66253;50.526;14.974;2024-01-30T05:21:41;100885.30;;;-3.09;86.42
77235;BME280;66253;50.526;14.974;2024-01-30T05:24:10;100886.30;;;-3.10;86.15
77235;BME280;66253;50.526;14.974;2024-01-30T05:26:38;100881.56;;;-3.12;86.32
77235;BME280;66253;50.526;14.974;2024-01-30T05:29:06;100880.06;;;-3.12;86.59
77235;BME280;66253;50.526;14.974;2024-01-30T05:31:35;100882.27;;;-3.11;86.60
77235;BME280;66253;50.526;14.974;2024-01-30T05:34:03;100883.78;;;-3.10;86.55
77235;BME280;66253;50.526;14.974;2024-01-30T05:36:32;100884.45;;;-3.10;86.98
77235;BME280;66253;50.526;14.974;2024-01-30T05:39:00;100884.45;;;-3.10;86.61
77235;BME280;66253;50.526;14.974;2024-01-30T05:41:30;100884.77;;;-3.10;86.90
77235;BME280;66253;50.526;14.974;2024-01-30T05:43:58;100888.45;;;-3.10;86.95
77235;BME280;66253;50.526;14.974;2024-01-30T05:46:26;100890.95;;;-3.10;87.10
77235;BME280;66253;50.526;14.974;2024-01-30T05:48:55;100887.80;;;-3.10;86.90
77235;BME280;66253;50.526;14.974;2024-01-30T05:51:23;100887.11;;;-3.10;87.15
77235;BME280;66253;50.526;14.974;2024-01-30T05:53:51;100887.28;;;-3.11;87.05
77235;BME280;66253;50.526;14.974;2024-01-30T05:56:19;100886.45;;;-3.11;86.89
77235;BME280;66253;50.526;14.974;2024-01-30T05:58:48;100884.75;;;-3.11;86.72
77235;BME280;66253;50.526;14.974;2024-01-30T06:01:16;100882.23;;;-3.11;86.87
77235;BME280;66253;50.526;14.974;2024-01-30T06:03:44;100884.91;;;-3.11;86.87
77235;BME280;66253;50.526;14.974;2024-01-30T06:06:12;100882.92;;;-3.11;86.92
77235;BME280;66253;50.526;14.974;2024-01-30T06:08:41;100886.94;;;-3.11;86.70
77235;BME280;66253;50.526;14.974;2024-01-30T06:11:12;100883.11;;;-3.10;87.07
77235;BME280;66253;50.526;14.974;2024-01-30T06:13:40;100880.61;;;-3.10;87.02
77235;BME280;66253;50.526;14.974;2024-01-30T06:16:11;100883.61;;;-3.10;87.03
77235;BME280;66253;50.526;14.974;2024-01-30T06:18:39;100882.44;;;-3.10;87.14
77235;BME280;66253;50.526;14.974;2024-01-30T06:21:08;100880.11;;;-3.10;87.17
77235;BME280;66253;50.526;14.974;2024-01-30T06:23:36;100884.45;;;-3.10;86.94
77235;BME280;66253;50.526;14.974;2024-01-30T06:26:05;100884.63;;;-3.09;86.94
77235;BME280;66253;50.526;14.974;2024-01-30T06:28:33;100883.79;;;-3.10;87.06
77235;BME280;66253;50.526;14.974;2024-01-30T06:31:03;100884.77;;;-3.10;87.14
77235;BME280;66253;50.526;14.974;2024-01-30T06:33:32;100886.45;;;-3.10;87.19
77235;BME280;66253;50.526;14.974;2024-01-30T06:36:00;100881.77;;;-3.11;86.91
77235;BME280;66253;50.526;14.974;2024-01-30T06:38:28;100878.75;;;-3.11;87.16
77235;BME280;66253;50.526;14.974;2024-01-30T06:40:56;100877.42;;;-3.10;87.38
77235;BME280;66253;50.526;14.974;2024-01-30T06:43:24;100873.05;;;-3.11;87.64
77235;BME280;66253;50.526;14.974;2024-01-30T06:45:53;100877.45;;;-3.09;87.29
77235;BME280;66253;50.526;14.974;2024-01-30T06:48:21;100877.13;;;-3.09;87.56
77235;BME280;66253;50.526;14.974;2024-01-30T06:50:49;100877.98;;;-3.08;87.23
77235;BME280;66253;50.526;14.974;2024-01-30T06:53:17;100879.98;;;-3.08;87.12
77235;BME280;66253;50.526;14.974;2024-01-30T06:55:46;100881.69;;;-3.07;87.03
77235;BME280;66253;50.526;14.974;2024-01-30T06:58:14;100883.02;;;-3.07;86.97
77235;BME280;66253;50.526;14.974;2024-01-30T07:00:42;100887.21;;;-3.06;87.21
77235;BME280;66253;50.526;14.974;2024-01-30T07:03:11;100888.23;;;-3.05;87.27
77235;BME280;66253;50.526;14.974;2024-01-30T07:05:39;100891.14;;;-3.03;87.59
77235;BME280;66253;50.526;14.974;2024-01-30T07:08:07;100890.98;;;-3.02;87.63
77235;BME280;66253;50.526;14.974;2024-01-30T07:10:36;100889.17;;;-3.01;87.31
77235;BME280;66253;50.526;14.974;2024-01-30T07:13:04;100898.27;;;-2.98;87.77
77235;BME280;66253;50.526;14.974;2024-01-30T07:15:33;100895.84;;;-2.96;87.66
77235;BME280;66253;50.526;14.974;2024-01-30T07:18:02;100894.69;;;-2.95;87.44
77235;BME280;66253;50.526;14.974;2024-01-30T07:20:31;100898.30;;;-2.91;87.49
77235;BME280;66253;50.526;14.974;2024-01-30T07:22:59;100900.73;;;-2.88;87.82
77235;BME280;66253;50.526;14.974;2024-01-30T07:25:27;100900.98;;;-2.84;87.71
77235;BME280;66253;50.526;14.974;2024-01-30T07:27:56;100898.86;;;-2.82;87.86
77235;BME280;66253;50.526;14.974;2024-01-30T07:30:24;100901.81;;;-2.78;87.62
77235;BME280;66253;50.526;14.974;2024-01-30T07:32:52;100901.23;;;-2.75;87.72
77235;BME280;66253;50.526;14.974;2024-01-30T07:35:21;100898.63;;;-2.72;87.80
77235;BME280;66253;50.526;14.974;2024-01-30T07:37:49;100897.54;;;-2.68;87.96
77235;BME280;66253;50.526;14.974;2024-01-30T07:40:17;100898.64;;;-2.65;87.98
77235;BME280;66253;50.526;14.974;2024-01-30T07:42:46;100897.71;;;-2.62;88.03
77235;BME280;66253;50.526;14.974;2024-01-30T07:45:14;100898.98;;;-2.57;88.32
77235;BME280;66253;50.526;14.974;2024-01-30T07:47:42;100897.11;;;-2.52;88.54
77235;BME280;66253;50.526;14.974;2024-01-30T07:50:11;100898.58;;;-2.46;88.62
77235;BME280;66253;50.526;14.974;2024-01-30T07:52:43;100897.88;;;-2.40;88.62
77235;BME280;66253;50.526;14.974;2024-01-30T07:55:11;100897.21;;;-2.33;88.75
77235;BME280;66253;50.526;14.974;2024-01-30T07:57:46;100901.40;;;-2.26;88.78
77235;BME280;66253;50.526;14.974;2024-01-30T08:00:16;100898.38;;;-2.19;89.02
77235;BME280;66253;50.526;14.974;2024-01-30T08:02:43;100899.98;;;-2.07;89.20
77235;BME280;66253;50.526;14.974;2024-01-30T08:05:12;100899.88;;;-1.97;89.20
77235;BME280;66253;50.526;14.974;2024-01-30T08:07:40;100900.95;;;-1.87;89.26
77235;BME280;66253;50.526;14.974;2024-01-30T08:10:11;100902.63;;;-1.78;88.94
77235;BME280;66253;50.526;14.974;2024-01-30T08:12:39;100904.50;;;-1.69;89.37
77235;BME280;66253;50.526;14.974;2024-01-30T08:15:08;100905.36;;;-1.59;89.06
77235;BME280;66253;50.526;14.974;2024-01-30T08:17:37;100900.21;;;-1.49;89.26
77235;BME280;66253;50.526;14.974;2024-01-30T08:20:06;100897.62;;;-1.36;89.47
77235;BME280;66253;50.526;14.974;2024-01-30T08:22:37;100896.75;;;-1.20;90.60
77235;BME280;66253;50.526;14.974;2024-01-30T08:25:07;100891.64;;;-0.97;92.03
77235;BME280;66253;50.526;14.974;2024-01-30T08:27:35;100893.64;;;-0.69;92.73
77235;BME280;66253;50.526;14.974;2024-01-30T08:30:05;100893.25;;;-0.41;93.10
77235;BME280;66253;50.526;14.974;2024-01-30T08:32:33;100892.17;;;-0.12;93.48
77235;BME280;66253;50.526;14.974;2024-01-30T08:35:02;100893.54;;;0.14;92.86
77235;BME280;66253;50.526;14.974;2024-01-30T08:37:32;100892.68;;;0.39;92.53
77235;BME280;66253;50.526;14.974;2024-01-30T08:40:00;100885.55;;;0.60;91.89
77235;BME280;66253;50.526;14.974;2024-01-30T08:42:29;100889.48;;;0.80;91.76
77235;BME280;66253;50.526;14.974;2024-01-30T08:44:57;100887.28;;;0.96;90.76
77235;BME280;66253;50.526;14.974;2024-01-30T08:47:26;100888.26;;;1.10;90.31
77235;BME280;66253;50.526;14.974;2024-01-30T08:49:54;100889.73;;;1.26;89.98
77235;BME280;66253;50.526;14.974;2024-01-30T08:52:22;100888.02;;;1.40;89.71
77235;BME280;66253;50.526;14.974;2024-01-30T08:54:51;100889.29;;;1.52;89.27
77235;BME280;66253;50.526;14.974;2024-01-30T08:57:19;100884.86;;;1.66;88.92
77235;BME280;66253;50.526;14.974;2024-01-30T08:59:47;100881.42;;;1.79;88.77
77235;BME280;66253;50.526;14.974;2024-01-30T09:02:16;100880.31;;;1.94;88.64
77235;BME280;66253;50.526;14.974;2024-01-30T09:04:44;100881.59;;;2.08;87.72
77235;BME280;66253;50.526;14.974;2024-01-30T09:07:12;100881.65;;;2.22;87.11
77235;BME280;66253;50.526;14.974;2024-01-30T09:09:41;100882.38;;;2.33;86.48
77235;BME280;66253;50.526;14.974;2024-01-30T09:12:10;100883.61;;;2.44;86.12
77235;BME280;66253;50.526;14.974;2024-01-30T09:14:38;100884.98;;;2.54;85.30
77235;BME280;66253;50.526;14.974;2024-01-30T09:17:07;100883.85;;;2.64;84.72
77235;BME280;66253;50.526;14.974;2024-01-30T09:19:35;100887.75;;;2.74;84.18
77235;BME280;66253;50.526;14.974;2024-01-30T09:22:04;100887.27;;;2.85;84.56
77235;BME280;66253;50.526;14.974;2024-01-30T09:24:33;100879.70;;;2.95;83.99
77235;BME280;66253;50.526;14.974;2024-01-30T09:27:01;100879.90;;;3.04;83.19
77235;BME280;66253;50.526;14.974;2024-01-30T09:29:31;100877.54;;;3.13;83.54
77235;BME280;66253;50.526;14.974;2024-01-30T09:32:00;100876.20;;;3.23;83.77
77235;BME280;66253;50.526;14.974;2024-01-30T09:34:29;100871.65;;;3.34;83.24
77235;BME280;66253;50.526;14.974;2024-01-30T09:36:57;100870.96;;;3.43;82.49
77235;BME280;66253;50.526;14.974;2024-01-30T09:39:26;100870.45;;;3.49;81.74
77235;BME280;66253;50.526;14.974;2024-01-30T09:42:00;100871.80;;;3.56;81.53
77235;BME280;66253;50.526;14.974;2024-01-30T09:44:30;100872.98;;;3.62;79.82
77235;BME280;66253;50.526;14.974;2024-01-30T09:46:58;100872.31;;;3.64;79.57
77235;BME280;66253;50.526;14.974;2024-01-30T09:49:27;100869.44;;;3.67;79.77
77235;BME280;66253;50.526;14.974;2024-01-30T09:51:55;100872.97;;;3.73;79.89
77235;BME280;66253;50.526;14.974;2024-01-30T09:54:24;100876.67;;;3.80;79.80
77235;BME280;66253;50.526;14.974;2024-01-30T09:56:52;100870.92;;;3.83;78.39
77235;BME280;66253;50.526;14.974;2024-01-30T09:59:21;100871.09;;;3.87;78.35
77235;BME280;66253;50.526;14.974;2024-01-30T10:01:49;100872.61;;;3.90;77.79
77235;BME280;66253;50.526;14.974;2024-01-30T10:04:18;100873.10;;;3.94;77.67
77235;BME280;66253;50.526;14.974;2024-01-30T10:06:47;100875.63;;;3.97;77.98
77235;BME280;66253;50.526;14.974;2024-01-30T10:09:15;100871.73;;;4.03;78.00
77235;BME280;66253;50.526;14.974;2024-01-30T10:11:44;100873.40;;;4.09;77.69
77235;BME280;66253;50.526;14.974;2024-01-30T10:14:12;100868.14;;;4.15;77.55
77235;BME280;66253;50.526;14.974;2024-01-30T10:16:40;100863.89;;;4.19;77.15
77235;BME280;66253;50.526;14.974;2024-01-30T10:19:08;100865.92;;;4.19;75.74
77235;BME280;66253;50.526;14.974;2024-01-30T10:21:37;100863.41;;;4.17;75.97
77235;BME280;66253;50.526;14.974;2024-01-30T10:24:06;100864.58;;;4.17;75.62
77235;BME280;66253;50.526;14.974;2024-01-30T10:26:35;100858.84;;;4.17;76.06
77235;BME280;66253;50.526;14.974;2024-01-30T10:29:05;100858.48;;;4.22;75.79
77235;BME280;66253;50.526;14.974;2024-01-30T10:31:34;100858.29;;;4.28;75.58
77235;BME280;66253;50.526;14.974;2024-01-30T10:34:02;100857.27;;;4.32;75.79
77235;BME280;66253;50.526;14.974;2024-01-30T10:36:31;100858.77;;;4.34;74.82
77235;BME280;66253;50.526;14.974;2024-01-30T10:39:06;100856.23;;;4.37;75.04
77235;BME280;66253;50.526;14.974;2024-01-30T10:41:39;100852.83;;;4.39;74.60
77235;BME280;66253;50.526;14.974;2024-01-30T10:44:11;100845.39;;;4.40;74.23
77235;BME280;66253;50.526;14.974;2024-01-30T10:46:40;100844.35;;;4.43;74.67
77235;BME280;66253;50.526;14.974;2024-01-30T10:49:11;100841.96;;;4.46;75.39
77235;BME280;66253;50.526;14.974;2024-01-30T10:51:40;100840.61;;;4.46;74.86
77235;BME280;66253;50.526;14.974;2024-01-30T10:54:09;100838.94;;;4.45;74.61
77235;BME280;66253;50.526;14.974;2024-01-30T10:56:39;100835.71;;;4.45;73.90
77235;BME280;66253;50.526;14.974;2024-01-30T10:59:08;100835.70;;;4.48;73.99
77235;BME280;66253;50.526;14.974;2024-01-30T11:01:37;100827.91;;;4.53;73.80
77235;BME280;66253;50.526;14.974;2024-01-30T11:04:05;100824.34;;;4.53;73.43
77235;BME280;66253;50.526;14.974;2024-01-30T11:06:42;100820.10;;;4.55;73.83
77235;BME280;66253;50.526;14.974;2024-01-30T11:09:12;100814.83;;;4.61;74.99
77235;BME280;66253;50.526;14.974;2024-01-30T11:11:51;100815.29;;;4.68;74.75
77235;BME280;66253;50.526;14.974;2024-01-30T11:14:25;100808.80;;;4.75;74.35
77235;BME280;66253;50.526;14.974;2024-01-30T11:16:56;100814.99;;;4.86;74.15
77235;BME280;66253;50.526;14.974;2024-01-30T11:19:26;100812.92;;;4.92;73.86
77235;BME280;66253;50.526;14.974;2024-01-30T11:21:55;100812.94;;;4.90;72.56
77235;BME280;66253;50.526;14.974;2024-01-30T11:24:23;100807.52;;;4.89;73.36
77235;BME280;66253;50.526;14.974;2024-01-30T11:26:57;100803.95;;;4.93;73.43
77235;BME280;66253;50.526;14.974;2024-01-30T11:29:27;100798.67;;;4.97;72.96
77235;BME280;66253;50.526;14.974;2024-01-30T11:31:56;100801.69;;;5.01;73.50
77235;BME280;66253;50.526;14.974;2024-01-30T11:34:25;100796.45;;;5.00;72.54
77235;BME280;66253;50.526;14.974;2024-01-30T11:36:57;100793.38;;;5.03;73.35
77235;BME280;66253;50.526;14.974;2024-01-30T11:39:26;100792.80;;;5.10;73.55
77235;BME280;66253;50.526;14.974;2024-01-30T11:41:55;100792.77;;;5.14;72.77
77235;BME280;66253;50.526;14.974;2024-01-30T11:44:24;100790.22;;;5.15;72.14
77235;BME280;66253;50.526;14.974;2024-01-30T11:46:52;100789.91;;;5.13;71.79
77235;BME280;66253;50.526;14.974;2024-01-30T11:49:21;100786.19;;;5.11;72.42
77235;BME280;66253;50.526;14.974;2024-01-30T11:51:49;100783.52;;;5.07;72.73
77235;BME280;66253;50.526;14.974;2024-01-30T11:54:18;100779.83;;;5.02;72.64
77235;BME280;66253;50.526;14.974;2024-01-30T11:56:46;100774.63;;;4.97;72.13
77235;BME280;66253;50.526;14.974;2024-01-30T11:59:15;100768.92;;;4.90;72.77
77235;BME280;66253;50.526;14.974;2024-01-30T12:01:43;100764.70;;;4.87;72.34
77235;BME280;66253;50.526;14.974;2024-01-30T12:04:11;100766.44;;;4.80;72.14
77235;BME280;66253;50.526;14.974;2024-01-30T12:06:40;100762.93;;;4.77;72.48
77235;BME280;66253;50.526;14.974;2024-01-30T12:09:10;100758.06;;;4.72;72.97
77235;BME280;66253;50.526;14.974;2024-01-30T12:11:46;100753.50;;;4.69;72.73
77235;BME280;66253;50.526;14.974;2024-01-30T12:14:17;100752.88;;;4.63;72.93
77235;BME280;66253;50.526;14.974;2024-01-30T12:16:49;100749.39;;;4.53;72.58
77235;BME280;66253;50.526;14.974;2024-01-30T12:19:24;100743.81;;;4.50;73.28
77235;BME280;66253;50.526;14.974;2024-01-30T12:21:56;100740.42;;;4.53;73.56
77235;BME280;66253;50.526;14.974;2024-01-30T12:24:25;100740.76;;;4.53;73.69
77235;BME280;66253;50.526;14.974;2024-01-30T12:26:56;100741.94;;;4.54;73.35
77235;BME280;66253;50.526;14.974;2024-01-30T12:29:24;100743.28;;;4.55;73.38
77235;BME280;66253;50.526;14.974;2024-01-30T12:31:55;100743.42;;;4.58;74.05
77235;BME280;66253;50.526;14.974;2024-01-30T12:34:26;100738.66;;;4.63;73.43
77235;BME280;66253;50.526;14.974;2024-01-30T12:36:54;100735.73;;;4.70;73.83
77235;BME280;66253;50.526;14.974;2024-01-30T12:39:22;100730.61;;;4.75;73.86
77235;BME280;66253;50.526;14.974;2024-01-30T12:41:51;100733.25;;;4.83;74.00
77235;BME280;66253;50.526;14.974;2024-01-30T12:44:19;100732.52;;;4.90;73.51
77235;BME280;66253;50.526;14.974;2024-01-30T12:46:51;100729.92;;;4.96;73.57
77235;BME280;66253;50.526;14.974;2024-01-30T12:49:19;100727.53;;;5.01;73.43
77235;BME280;66253;50.526;14.974;2024-01-30T12:51:47;100724.23;;;5.08;73.81